createdAt,value
2019-05-28T10:22:26.719Z,24.84
2019-05-28T10:24:55.353Z,25.48
2019-05-28T10:27:24.005Z,25.77
2019-05-28T10:29:52.686Z,25.61
2019-05-28T10:32:21.224Z,25.27
2019-05-28T10:35:03.133Z,24.93
2019-05-28T10:37:20.193Z,25.50
2019-05-28T10:39:48.830Z,25.52
2019-05-28T10:42:17.361Z,25.18
2019-05-28T10:44:46.041Z,24.51
2019-05-28T10:47:14.671Z,24.61
2019-05-28T10:49:43.224Z,24.27
2019-05-28T10:52:11.833Z,24.76
2019-05-28T10:54:40.462Z,25.19
2019-05-28T10:57:09.102Z,25.34
2019-05-28T10:59:37.797Z,25.33
2019-05-28T11:02:06.432Z,25.33
2019-05-28T11:04:35.000Z,25.54
2019-05-28T11:07:03.777Z,25.96
2019-05-28T11:09:32.584Z,25.71
2019-05-28T11:12:01.212Z,26.02
2019-05-28T11:14:29.825Z,26.15
2019-05-28T11:16:58.332Z,26.35
2019-05-28T11:19:26.965Z,26.16
2019-05-28T11:21:55.604Z,26.31
2019-05-28T11:24:24.109Z,26.67
2019-05-28T11:26:52.808Z,26.74
2019-05-28T11:29:21.451Z,26.73
2019-05-28T11:31:50.105Z,26.79
2019-05-28T11:34:18.687Z,26.94
2019-05-28T11:36:47.193Z,27.13
2019-05-28T11:39:15.839Z,27.00
2019-05-28T11:41:44.389Z,27.13
2019-05-28T11:44:13.027Z,26.98
2019-05-28T11:46:41.668Z,26.38
2019-05-28T11:49:10.273Z,26.31
2019-05-28T11:51:38.770Z,26.31
2019-05-28T11:54:07.450Z,26.54
2019-05-28T11:56:36.123Z,26.63
2019-05-28T11:59:04.857Z,26.23
2019-05-28T12:01:35.291Z,26.45
2019-05-28T12:04:03.881Z,27.00
2019-05-28T12:06:37.943Z,27.51
2019-05-28T12:09:02.840Z,27.17
2019-05-28T12:11:31.448Z,26.89
2019-05-28T12:14:00.081Z,26.37
2019-05-28T12:16:28.717Z,26.48
2019-05-28T12:18:58.397Z,26.28
2019-05-28T12:21:27.170Z,25.98
2019-05-28T12:23:55.679Z,26.29
2019-05-28T12:26:24.265Z,26.55
2019-05-28T12:28:52.908Z,26.55
2019-05-28T12:31:21.598Z,26.34
2019-05-28T12:33:50.101Z,26.66
2019-05-28T12:36:18.604Z,26.83
2019-05-28T12:38:47.410Z,27.30
2019-05-28T12:41:16.040Z,27.35
2019-05-28T12:43:44.599Z,27.17
2019-05-28T12:46:13.205Z,27.00
2019-05-28T12:48:41.843Z,26.94
2019-05-28T12:51:10.481Z,27.70
2019-05-28T12:53:49.847Z,27.59
2019-05-28T12:56:09.398Z,27.86
2019-05-28T12:58:42.913Z,27.82
2019-05-28T13:01:08.416Z,27.10
2019-05-28T13:03:36.955Z,27.24
2019-05-28T13:06:05.747Z,27.00
2019-05-28T13:08:34.418Z,27.20
2019-05-28T13:11:03.284Z,27.63
2019-05-28T13:13:31.910Z,27.97
2019-05-28T13:16:00.452Z,27.43
2019-05-28T13:18:29.149Z,27.62
2019-05-28T13:20:57.797Z,27.96
2019-05-28T13:23:26.416Z,28.46
2019-05-28T13:25:54.902Z,28.85
2019-05-28T13:28:23.566Z,29.48
2019-05-28T13:30:52.208Z,29.93
2019-05-28T13:33:20.713Z,30.18
2019-05-28T13:35:49.286Z,30.61
2019-05-28T13:38:27.171Z,30.97
2019-05-28T13:40:48.206Z,31.13
2019-05-28T13:43:16.868Z,31.14
2019-05-28T13:45:45.638Z,31.40
2019-05-28T13:48:14.301Z,31.28
2019-05-28T13:50:42.951Z,30.66
2019-05-28T13:53:11.645Z,30.63
2019-05-28T13:55:40.300Z,30.68
2019-05-28T13:58:08.860Z,30.90
2019-05-28T14:00:37.798Z,30.73
2019-05-28T14:03:06.794Z,30.54
2019-05-28T14:05:35.430Z,30.62
2019-05-28T14:08:04.050Z,30.70
2019-05-28T14:10:32.673Z,30.56
2019-05-28T14:13:01.355Z,30.71
2019-05-28T14:15:30.073Z,30.60
2019-05-28T14:17:58.586Z,30.52
2019-05-28T14:20:27.219Z,30.46
2019-05-28T14:22:55.923Z,30.44
2019-05-28T14:25:24.503Z,30.53
2019-05-28T14:27:53.138Z,30.43
2019-05-28T14:30:22.217Z,30.37
2019-05-28T14:32:50.849Z,30.39
2019-05-28T14:35:19.562Z,30.42
2019-05-28T14:37:48.244Z,30.25
2019-05-28T14:40:17.283Z,30.09
2019-05-28T14:42:45.851Z,30.09
2019-05-28T14:45:16.165Z,29.97
2019-05-28T14:47:44.795Z,29.81
2019-05-28T14:50:15.972Z,29.83
2019-05-28T14:52:44.704Z,30.00
2019-05-28T14:55:15.367Z,29.99
2019-05-28T14:57:44.232Z,29.92
2019-05-28T15:00:14.974Z,29.72
2019-05-28T15:02:43.631Z,29.60
2019-05-28T15:05:12.586Z,29.83
2019-05-28T15:07:41.110Z,29.66
2019-05-28T15:10:11.544Z,29.59
2019-05-28T15:12:40.610Z,29.75
2019-05-28T15:15:11.632Z,29.84
2019-05-28T15:17:40.213Z,29.89
2019-05-28T15:20:10.865Z,29.75
2019-05-28T15:22:39.595Z,29.89
2019-05-28T15:25:09.131Z,29.85
2019-05-28T15:27:37.711Z,29.60
2019-05-28T15:30:08.006Z,29.65
2019-05-28T15:32:36.636Z,29.61
2019-05-28T15:35:09.661Z,29.61
2019-05-28T15:37:38.217Z,29.35
2019-05-28T15:40:07.956Z,29.31
2019-05-28T15:42:36.629Z,29.01
2019-05-28T15:45:08.738Z,29.13
2019-05-28T15:47:38.287Z,29.02
2019-05-28T15:50:11.487Z,29.13
2019-05-28T15:52:40.151Z,28.99
2019-05-28T15:55:09.383Z,28.83
2019-05-28T15:57:38.015Z,28.84
2019-05-28T16:00:17.563Z,28.55
2019-05-28T16:02:46.130Z,28.60
2019-05-28T16:05:14.853Z,28.22
2019-05-28T16:07:43.542Z,28.30
2019-05-28T16:10:12.380Z,28.34
2019-05-28T16:12:41.000Z,28.31
2019-05-28T16:15:10.444Z,27.95
2019-05-28T16:17:39.168Z,27.87
2019-05-28T16:20:08.430Z,27.73
2019-05-28T16:22:37.104Z,27.59
2019-05-28T16:25:10.074Z,27.40
2019-05-28T16:27:38.680Z,27.18
2019-05-28T16:30:11.392Z,27.20
2019-05-28T16:32:40.094Z,27.07
2019-05-28T16:35:10.523Z,26.88
2019-05-28T16:37:39.148Z,26.79
2019-05-28T16:40:15.765Z,26.56
2019-05-28T16:42:39.058Z,26.56
2019-05-28T16:45:08.784Z,26.40
2019-05-28T16:47:37.596Z,26.30
2019-05-28T16:50:06.865Z,26.07
2019-05-28T16:52:35.469Z,25.95
2019-05-28T16:55:06.242Z,25.75
2019-05-28T16:57:35.009Z,25.74
2019-05-28T17:00:05.518Z,25.54
2019-05-28T17:02:34.181Z,25.55
2019-05-28T17:05:02.779Z,25.47
2019-05-28T17:07:31.831Z,25.46
2019-05-28T17:10:00.467Z,25.28
2019-05-28T17:12:29.486Z,25.10
2019-05-28T17:14:58.081Z,25.05
2019-05-28T17:17:26.806Z,24.91
2019-05-28T17:19:55.464Z,24.70
2019-05-28T17:22:23.954Z,24.60
2019-05-28T17:24:52.553Z,24.48
2019-05-28T17:27:21.225Z,24.42
2019-05-28T17:29:50.793Z,24.39
2019-05-28T17:32:19.421Z,24.18
2019-05-28T17:34:48.002Z,24.08
2019-05-28T17:37:16.665Z,23.99
2019-05-28T17:39:45.170Z,23.93
2019-05-28T17:42:13.803Z,23.79
2019-05-28T17:44:42.467Z,23.79
2019-05-28T17:47:11.035Z,23.63
2019-05-28T17:49:39.532Z,23.51
2019-05-28T17:52:08.208Z,23.54
2019-05-28T17:54:36.848Z,23.39
2019-05-28T17:57:05.485Z,23.33
2019-05-28T17:59:34.096Z,23.11
2019-05-28T18:02:02.740Z,23.07
2019-05-28T18:04:31.379Z,23.02
2019-05-28T18:06:59.998Z,22.98
2019-05-28T18:09:28.631Z,22.82
2019-05-28T18:11:57.196Z,22.67
2019-05-28T18:14:25.876Z,22.60
2019-05-28T18:16:54.385Z,22.50
2019-05-28T18:19:22.873Z,22.61
2019-05-28T18:21:51.538Z,22.55
2019-05-28T18:24:21.000Z,22.53
2019-05-28T18:26:49.606Z,22.44
2019-05-28T18:29:18.213Z,22.35
2019-05-28T18:31:47.114Z,22.34
2019-05-28T18:34:15.748Z,22.32
2019-05-28T18:36:44.369Z,22.27
2019-05-28T18:39:12.943Z,22.35
2019-05-28T18:41:41.585Z,22.36
2019-05-28T18:44:10.297Z,22.29
2019-05-28T18:46:39.027Z,22.33
2019-05-28T18:49:07.590Z,22.32
2019-05-28T18:51:38.817Z,22.38
2019-05-28T18:54:06.625Z,22.36
2019-05-28T18:56:35.208Z,22.32
2019-05-28T18:59:03.948Z,22.35
2019-05-28T19:01:32.474Z,22.40
2019-05-28T19:04:01.038Z,22.38
2019-05-28T19:06:29.724Z,22.39
2019-05-28T19:08:58.298Z,22.35
2019-05-28T19:11:37.344Z,22.39
2019-05-28T19:13:57.192Z,22.29
2019-05-28T19:16:25.841Z,22.40
2019-05-28T19:18:55.419Z,22.31
2019-05-28T19:21:24.109Z,21.85
2019-05-28T19:23:52.680Z,21.49
2019-05-28T19:26:21.348Z,21.27
2019-05-28T19:28:49.920Z,21.06
2019-05-28T19:31:18.493Z,20.88
2019-05-28T19:33:47.040Z,20.84
2019-05-28T19:36:16.212Z,20.85
2019-05-28T19:38:46.141Z,20.77
2019-05-28T19:41:14.874Z,20.63
2019-05-28T19:43:43.567Z,20.64
2019-05-28T19:46:12.165Z,20.46
2019-05-28T19:48:40.665Z,20.34
2019-05-28T19:51:09.374Z,20.26
2019-05-28T19:53:37.979Z,20.13
2019-05-28T19:56:06.606Z,19.98
2019-05-28T19:58:35.228Z,19.84
2019-05-28T20:01:03.957Z,19.77
2019-05-28T20:03:32.585Z,19.72
2019-05-28T20:06:01.124Z,19.66
2019-05-28T20:08:29.757Z,19.53
2019-05-28T20:10:58.390Z,19.39
2019-05-28T20:13:27.068Z,19.37
2019-05-28T20:15:56.981Z,19.36
2019-05-28T20:18:26.924Z,19.29
2019-05-28T20:20:55.965Z,19.23
2019-05-28T20:23:24.542Z,19.18
2019-05-28T20:25:54.465Z,19.14
2019-05-28T20:28:23.443Z,18.98
2019-05-28T20:30:51.986Z,18.98
2019-05-28T20:33:20.635Z,18.88
2019-05-28T20:35:49.299Z,18.85
2019-05-28T20:38:17.950Z,18.88
2019-05-28T20:40:46.576Z,18.78
2019-05-28T20:43:15.179Z,18.75
2019-05-28T20:45:43.822Z,18.67
2019-05-28T20:48:12.433Z,18.64
2019-05-28T20:50:41.025Z,18.61
2019-05-28T20:53:09.562Z,18.59
2019-05-28T20:55:38.173Z,18.53
2019-05-28T20:58:06.745Z,18.51
2019-05-28T21:00:35.451Z,18.51
2019-05-28T21:03:04.427Z,18.54
2019-05-28T21:05:32.980Z,18.50
2019-05-28T21:08:01.548Z,18.40
2019-05-28T21:10:30.158Z,18.36
2019-05-28T21:12:59.025Z,18.32
2019-05-28T21:15:27.735Z,18.27
2019-05-28T21:17:57.326Z,18.27
2019-05-28T21:20:26.069Z,18.27
2019-05-28T21:22:55.863Z,18.29
2019-05-28T21:25:24.485Z,18.27
2019-05-28T21:27:54.012Z,18.17
2019-05-28T21:30:22.981Z,18.12
2019-05-28T21:32:52.580Z,18.15
2019-05-28T21:35:21.241Z,18.03
2019-05-28T21:37:50.978Z,18.00
2019-05-28T21:40:19.953Z,17.97
2019-05-28T21:42:59.305Z,17.97
2019-05-28T21:45:19.140Z,17.99
2019-05-28T21:47:47.771Z,18.02
2019-05-28T21:50:16.508Z,18.00
2019-05-28T21:52:45.167Z,17.93
2019-05-28T21:55:14.106Z,17.89
2019-05-28T21:57:42.780Z,17.92
2019-05-28T22:00:17.976Z,17.90
2019-05-28T22:02:46.459Z,17.93
2019-05-28T22:05:15.391Z,17.93
2019-05-28T22:07:44.084Z,17.92
2019-05-28T22:10:12.800Z,17.92
2019-05-28T22:12:41.290Z,17.98
2019-05-28T22:15:10.965Z,18.05
2019-05-28T22:17:39.531Z,17.99
2019-05-28T22:20:08.891Z,18.05
2019-05-28T22:22:37.574Z,18.07
2019-05-28T22:25:07.310Z,18.19
2019-05-28T22:27:35.952Z,18.21
2019-05-28T22:30:07.751Z,18.13
2019-05-28T22:32:36.406Z,18.07
2019-05-28T22:35:08.836Z,18.05
2019-05-28T22:37:37.563Z,18.09
2019-05-28T22:40:08.373Z,18.15
2019-05-28T22:42:37.007Z,18.05
2019-05-28T22:45:07.304Z,17.96
2019-05-28T22:47:35.797Z,17.99
2019-05-28T22:50:19.701Z,18.03
2019-05-28T22:52:37.824Z,17.96
2019-05-28T22:55:08.162Z,17.94
2019-05-28T22:57:36.802Z,17.97
2019-05-28T23:00:08.947Z,17.97
2019-05-28T23:02:37.508Z,17.97
2019-05-28T23:05:07.250Z,18.01
2019-05-28T23:07:35.939Z,18.01
2019-05-28T23:10:07.861Z,17.87
2019-05-28T23:12:36.578Z,17.95
2019-05-28T23:15:08.093Z,17.87
2019-05-28T23:17:36.776Z,17.79
2019-05-28T23:20:13.256Z,17.79
2019-05-28T23:22:41.755Z,17.77
2019-05-28T23:25:11.737Z,17.71
2019-05-28T23:27:40.479Z,17.56
2019-05-28T23:30:21.487Z,17.44
2019-05-28T23:32:40.329Z,17.41
2019-05-28T23:35:10.603Z,17.37
2019-05-28T23:37:39.238Z,17.26
2019-05-28T23:40:09.379Z,17.23
2019-05-28T23:42:38.057Z,17.21
2019-05-28T23:45:07.751Z,17.21
2019-05-28T23:47:36.505Z,17.20
2019-05-28T23:50:06.776Z,17.23
2019-05-28T23:52:35.498Z,17.20
2019-05-28T23:55:06.020Z,17.24
2019-05-28T23:57:34.627Z,17.23
